sensor_id;sensor_type;location;lat;lon;timestamp;P1;durP1;ratioP1;P2;durP2;ratioP2
5945;SDS011;2998;48.206;16.394;2023-09-18T00:00:33;10.00;;;9.10;;
5945;SDS011;2998;48.206;16.394;2023-09-18T00:03:04;9.90;;;9.10;;
5945;SDS011;2998;48.206;16.394;2023-09-18T00:14:36;8.67;;;7.97;;
5945;SDS011;2998;48.206;16.394;2023-09-18T00:25:13;8.53;;;7.83;;
5945;SDS011;2998;48.206;16.394;2023-09-18T00:27:43;9.50;;;8.70;;
5945;SDS011;2998;48.206;16.394;2023-09-18T00:34:33;8.73;;;8.13;;
5945;SDS011;2998;48.206;16.394;2023-09-18T00:41:15;8.53;;;7.93;;
5945;SDS011;2998;48.206;16.394;2023-09-18T00:43:44;9.37;;;8.67;;
5945;SDS011;2998;48.206;16.394;2023-09-18T00:50:33;8.60;;;8.00;;
5945;SDS011;2998;48.206;16.394;2023-09-18T00:53:04;9.53;;;8.60;;
5945;SDS011;2998;48.206;16.394;2023-09-18T00:55:33;9.13;;;8.43;;
5945;SDS011;2998;48.206;16.394;2023-09-18T00:58:05;9.63;;;8.47;;
5945;SDS011;2998;48.206;16.394;2023-09-18T01:00:34;8.70;;;8.00;;
5945;SDS011;2998;48.206;16.394;2023-09-18T01:03:04;9.27;;;8.47;;
5945;SDS011;2998;48.206;16.394;2023-09-18T01:05:35;9.30;;;8.53;;
5945;SDS011;2998;48.206;16.394;2023-09-18T01:08:05;9.50;;;8.60;;
5945;SDS011;2998;48.206;16.394;2023-09-18T01:10:36;8.87;;;8.17;;
5945;SDS011;2998;48.206;16.394;2023-09-18T01:13:11;10.57;;;9.57;;
5945;SDS011;2998;48.206;16.394;2023-09-18T01:15:43;9.10;;;8.40;;
5945;SDS011;2998;48.206;16.394;2023-09-18T01:18:19;9.83;;;9.03;;
5945;SDS011;2998;48.206;16.394;2023-09-18T01:20:50;8.73;;;8.07;;
5945;SDS011;2998;48.206;16.394;2023-09-18T01:23:21;8.47;;;7.77;;
5945;SDS011;2998;48.206;16.394;2023-09-18T01:25:50;8.77;;;8.10;;
5945;SDS011;2998;48.206;16.394;2023-09-18T01:28:20;10.47;;;8.30;;
5945;SDS011;2998;48.206;16.394;2023-09-18T01:30:49;8.23;;;7.60;;
5945;SDS011;2998;48.206;16.394;2023-09-18T01:33:18;9.53;;;8.63;;
5945;SDS011;2998;48.206;16.394;2023-09-18T01:35:48;7.70;;;7.17;;
5945;SDS011;2998;48.206;16.394;2023-09-18T01:38:20;8.73;;;8.00;;
5945;SDS011;2998;48.206;16.394;2023-09-18T01:40:51;7.53;;;7.03;;
5945;SDS011;2998;48.206;16.394;2023-09-18T01:43:22;8.33;;;7.63;;
5945;SDS011;2998;48.206;16.394;2023-09-18T01:45:51;8.37;;;7.77;;
5945;SDS011;2998;48.206;16.394;2023-09-18T01:52:40;8.50;;;7.90;;
5945;SDS011;2998;48.206;16.394;2023-09-18T01:55:11;9.23;;;8.43;;
5945;SDS011;2998;48.206;16.394;2023-09-18T02:02:06;11.97;;;9.10;;
5945;SDS011;2998;48.206;16.394;2023-09-18T02:04:41;9.50;;;8.60;;
5945;SDS011;2998;48.206;16.394;2023-09-18T02:11:44;9.97;;;9.17;;
5945;SDS011;2998;48.206;16.394;2023-09-18T02:15:36;9.80;;;8.90;;
5945;SDS011;2998;48.206;16.394;2023-09-18T02:22:24;9.93;;;8.90;;
5945;SDS011;2998;48.206;16.394;2023-09-18T02:24:54;8.87;;;8.23;;
5945;SDS011;2998;48.206;16.394;2023-09-18T02:31:44;9.97;;;9.07;;
5945;SDS011;2998;48.206;16.394;2023-09-18T02:34:13;10.13;;;9.23;;
5945;SDS011;2998;48.206;16.394;2023-09-18T02:36:43;8.83;;;8.23;;
5945;SDS011;2998;48.206;16.394;2023-09-18T02:39:12;8.97;;;8.27;;
5945;SDS011;2998;48.206;16.394;2023-09-18T02:41:42;8.10;;;7.53;;
5945;SDS011;2998;48.206;16.394;2023-09-18T02:44:11;8.57;;;7.87;;
5945;SDS011;2998;48.206;16.394;2023-09-18T02:46:41;15.30;;;9.10;;
5945;SDS011;2998;48.206;16.394;2023-09-18T02:49:12;8.97;;;8.17;;
5945;SDS011;2998;48.206;16.394;2023-09-18T02:51:42;9.60;;;8.70;;
5945;SDS011;2998;48.206;16.394;2023-09-18T02:54:11;8.97;;;8.17;;
5945;SDS011;2998;48.206;16.394;2023-09-18T02:56:41;9.60;;;8.80;;
5945;SDS011;2998;48.206;16.394;2023-09-18T03:03:24;8.70;;;8.00;;
5945;SDS011;2998;48.206;16.394;2023-09-18T03:05:59;9.13;;;8.27;;
5945;SDS011;2998;48.206;16.394;2023-09-18T03:17:26;8.73;;;6.90;;
5945;SDS011;2998;48.206;16.394;2023-09-18T03:19:57;8.43;;;7.83;;
5945;SDS011;2998;48.206;16.394;2023-09-18T03:22:27;9.57;;;8.57;;
5945;SDS011;2998;48.206;16.394;2023-09-18T03:24:57;9.60;;;8.80;;
5945;SDS011;2998;48.206;16.394;2023-09-18T03:27:26;18.97;;;8.00;;
5945;SDS011;2998;48.206;16.394;2023-09-18T03:29:56;9.10;;;8.50;;
5945;SDS011;2998;48.206;16.394;2023-09-18T03:32:25;9.93;;;9.10;;
5945;SDS011;2998;48.206;16.394;2023-09-18T03:34:54;8.57;;;7.93;;
5945;SDS011;2998;48.206;16.394;2023-09-18T03:37:26;9.03;;;8.13;;
5945;SDS011;2998;48.206;16.394;2023-09-18T03:39:55;7.67;;;7.07;;
5945;SDS011;2998;48.206;16.394;2023-09-18T03:42:25;8.90;;;8.10;;
5945;SDS011;2998;48.206;16.394;2023-09-18T03:44:55;10.10;;;9.20;;
5945;SDS011;2998;48.206;16.394;2023-09-18T03:47:25;9.90;;;9.00;;
5945;SDS011;2998;48.206;16.394;2023-09-18T03:54:15;7.40;;;6.90;;
5945;SDS011;2998;48.206;16.394;2023-09-18T03:56:44;9.07;;;8.37;;
5945;SDS011;2998;48.206;16.394;2023-09-18T04:03:31;9.03;;;8.23;;
5945;SDS011;2998;48.206;16.394;2023-09-18T04:06:01;9.57;;;8.57;;
5945;SDS011;2998;48.206;16.394;2023-09-18T04:12:50;8.27;;;7.57;;
5945;SDS011;2998;48.206;16.394;2023-09-18T04:19:32;8.87;;;8.07;;
5945;SDS011;2998;48.206;16.394;2023-09-18T04:22:01;8.10;;;7.50;;
5945;SDS011;2998;48.206;16.394;2023-09-18T04:28:48;8.00;;;7.40;;
5945;SDS011;2998;48.206;16.394;2023-09-18T04:31:20;9.17;;;8.37;;
5945;SDS011;2998;48.206;16.394;2023-09-18T04:38:08;9.20;;;8.40;;
5945;SDS011;2998;48.206;16.394;2023-09-18T04:45:00;8.70;;;7.90;;
5945;SDS011;2998;48.206;16.394;2023-09-18T04:47:36;9.13;;;8.23;;
5945;SDS011;2998;48.206;16.394;2023-09-18T04:54:27;8.20;;;7.40;;
5945;SDS011;2998;48.206;16.394;2023-09-18T04:57:00;8.20;;;7.50;;
5945;SDS011;2998;48.206;16.394;2023-09-18T05:04:02;8.13;;;7.43;;
5945;SDS011;2998;48.206;16.394;2023-09-18T05:06:37;9.23;;;8.23;;
5945;SDS011;2998;48.206;16.394;2023-09-18T05:09:11;8.33;;;7.70;;
5945;SDS011;2998;48.206;16.394;2023-09-18T05:11:43;8.10;;;7.50;;
5945;SDS011;2998;48.206;16.394;2023-09-18T05:14:17;15.90;;;11.43;;
5945;SDS011;2998;48.206;16.394;2023-09-18T05:16:50;14.30;;;11.57;;
5945;SDS011;2998;48.206;16.394;2023-09-18T05:19:24;9.50;;;8.53;;
5945;SDS011;2998;48.206;16.394;2023-09-18T05:21:56;7.40;;;6.90;;
5945;SDS011;2998;48.206;16.394;2023-09-18T05:24:31;8.70;;;7.20;;
5945;SDS011;2998;48.206;16.394;2023-09-18T05:27:06;9.23;;;6.90;;
5945;SDS011;2998;48.206;16.394;2023-09-18T05:29:37;9.20;;;7.33;;
5945;SDS011;2998;48.206;16.394;2023-09-18T05:32:10;7.73;;;6.80;;
5945;SDS011;2998;48.206;16.394;2023-09-18T05:34:48;6.77;;;6.23;;
5945;SDS011;2998;48.206;16.394;2023-09-18T05:42:00;8.80;;;6.87;;
5945;SDS011;2998;48.206;16.394;2023-09-18T05:44:31;11.30;;;7.23;;
5945;SDS011;2998;48.206;16.394;2023-09-18T05:51:29;6.33;;;5.80;;
5945;SDS011;2998;48.206;16.394;2023-09-18T05:54:03;5.77;;;5.27;;
5945;SDS011;2998;48.206;16.394;2023-09-18T06:00:46;6.03;;;5.57;;
5945;SDS011;2998;48.206;16.394;2023-09-18T06:03:18;7.13;;;5.20;;
5945;SDS011;2998;48.206;16.394;2023-09-18T06:10:02;14.33;;;10.00;;
5945;SDS011;2998;48.206;16.394;2023-09-18T06:21:36;5.50;;;5.10;;
5945;SDS011;2998;48.206;16.394;2023-09-18T06:24:06;7.80;;;7.10;;
5945;SDS011;2998;48.206;16.394;2023-09-18T06:30:49;6.10;;;5.70;;
5945;SDS011;2998;48.206;16.394;2023-09-18T06:33:21;5.80;;;5.30;;
5945;SDS011;2998;48.206;16.394;2023-09-18T06:35:51;6.80;;;6.27;;
5945;SDS011;2998;48.206;16.394;2023-09-18T06:38:21;6.07;;;5.63;;
5945;SDS011;2998;48.206;16.394;2023-09-18T06:40:51;5.63;;;5.23;;
5945;SDS011;2998;48.206;16.394;2023-09-18T06:43:22;6.23;;;5.50;;
5945;SDS011;2998;48.206;16.394;2023-09-18T06:45:55;6.07;;;5.47;;
5945;SDS011;2998;48.206;16.394;2023-09-18T06:48:25;5.93;;;5.40;;
5945;SDS011;2998;48.206;16.394;2023-09-18T06:50:59;6.20;;;5.80;;
5945;SDS011;2998;48.206;16.394;2023-09-18T06:53:29;10.00;;;5.50;;
5945;SDS011;2998;48.206;16.394;2023-09-18T06:55:58;6.53;;;6.03;;
5945;SDS011;2998;48.206;16.394;2023-09-18T06:58:28;6.03;;;5.50;;
5945;SDS011;2998;48.206;16.394;2023-09-18T07:01:00;5.10;;;4.80;;
5945;SDS011;2998;48.206;16.394;2023-09-18T07:03:30;5.97;;;5.43;;
5945;SDS011;2998;48.206;16.394;2023-09-18T07:06:02;5.73;;;5.43;;
5945;SDS011;2998;48.206;16.394;2023-09-18T07:08:32;6.80;;;5.03;;
5945;SDS011;2998;48.206;16.394;2023-09-18T07:11:02;6.27;;;4.83;;
5945;SDS011;2998;48.206;16.394;2023-09-18T07:22:18;6.87;;;5.23;;
5945;SDS011;2998;48.206;16.394;2023-09-18T07:24:49;6.10;;;5.50;;
5945;SDS011;2998;48.206;16.394;2023-09-18T07:31:37;4.23;;;4.03;;
5945;SDS011;2998;48.206;16.394;2023-09-18T07:34:07;5.10;;;4.70;;
5945;SDS011;2998;48.206;16.394;2023-09-18T07:36:40;5.17;;;4.87;;
5945;SDS011;2998;48.206;16.394;2023-09-18T07:39:11;4.63;;;4.33;;
5945;SDS011;2998;48.206;16.394;2023-09-18T07:41:41;5.67;;;4.70;;
5945;SDS011;2998;48.206;16.394;2023-09-18T07:44:10;6.40;;;5.87;;
5945;SDS011;2998;48.206;16.394;2023-09-18T07:46:39;5.00;;;4.80;;
5945;SDS011;2998;48.206;16.394;2023-09-18T07:49:09;6.23;;;5.73;;
5945;SDS011;2998;48.206;16.394;2023-09-18T07:51:39;6.00;;;5.50;;
5945;SDS011;2998;48.206;16.394;2023-09-18T07:54:08;6.30;;;5.47;;
5945;SDS011;2998;48.206;16.394;2023-09-18T07:56:39;4.97;;;4.67;;
5945;SDS011;2998;48.206;16.394;2023-09-18T07:59:10;5.27;;;4.87;;
5945;SDS011;2998;48.206;16.394;2023-09-18T08:01:41;4.57;;;4.27;;
5945;SDS011;2998;48.206;16.394;2023-09-18T08:08:33;4.90;;;4.60;;
5945;SDS011;2998;48.206;16.394;2023-09-18T08:11:06;5.33;;;4.10;;
5945;SDS011;2998;48.206;16.394;2023-09-18T08:22:35;6.80;;;4.73;;
5945;SDS011;2998;48.206;16.394;2023-09-18T08:25:06;5.93;;;4.80;;
5945;SDS011;2998;48.206;16.394;2023-09-18T08:27:38;4.57;;;4.17;;
5945;SDS011;2998;48.206;16.394;2023-09-18T08:30:09;5.20;;;5.00;;
5945;SDS011;2998;48.206;16.394;2023-09-18T08:32:39;5.90;;;5.50;;
5945;SDS011;2998;48.206;16.394;2023-09-18T08:35:09;6.83;;;5.33;;
5945;SDS011;2998;48.206;16.394;2023-09-18T08:37:41;6.03;;;5.70;;
5945;SDS011;2998;48.206;16.394;2023-09-18T08:40:11;5.63;;;5.33;;
5945;SDS011;2998;48.206;16.394;2023-09-18T08:42:44;5.17;;;4.87;;
5945;SDS011;2998;48.206;16.394;2023-09-18T08:45:15;5.47;;;4.97;;
5945;SDS011;2998;48.206;16.394;2023-09-18T08:47:49;5.47;;;5.17;;
5945;SDS011;2998;48.206;16.394;2023-09-18T08:50:20;4.83;;;4.63;;
5945;SDS011;2998;48.206;16.394;2023-09-18T08:52:52;6.40;;;5.57;;
5945;SDS011;2998;48.206;16.394;2023-09-18T08:55:21;5.17;;;4.97;;
5945;SDS011;2998;48.206;16.394;2023-09-18T08:57:53;25.63;;;11.30;;
5945;SDS011;2998;48.206;16.394;2023-09-18T09:00:22;5.33;;;5.03;;
5945;SDS011;2998;48.206;16.394;2023-09-18T09:02:52;5.40;;;5.10;;
5945;SDS011;2998;48.206;16.394;2023-09-18T09:05:21;4.97;;;4.77;;
5945;SDS011;2998;48.206;16.394;2023-09-18T09:07:53;15.37;;;13.63;;
5945;SDS011;2998;48.206;16.394;2023-09-18T09:14:36;6.30;;;5.70;;
5945;SDS011;2998;48.206;16.394;2023-09-18T09:17:06;7.80;;;7.00;;
5945;SDS011;2998;48.206;16.394;2023-09-18T09:23:58;6.57;;;6.00;;
5945;SDS011;2998;48.206;16.394;2023-09-18T09:26:30;5.60;;;5.30;;
5945;SDS011;2998;48.206;16.394;2023-09-18T09:33:16;11.80;;;5.60;;
5945;SDS011;2998;48.206;16.394;2023-09-18T09:40:07;5.50;;;5.20;;
5945;SDS011;2998;48.206;16.394;2023-09-18T09:42:38;4.37;;;3.97;;
5945;SDS011;2998;48.206;16.394;2023-09-18T09:49:27;4.70;;;4.40;;
5945;SDS011;2998;48.206;16.394;2023-09-18T09:52:00;4.70;;;4.47;;
5945;SDS011;2998;48.206;16.394;2023-09-18T09:59:01;16.17;;;8.53;;
5945;SDS011;2998;48.206;16.394;2023-09-18T10:01:35;4.43;;;4.13;;
5945;SDS011;2998;48.206;16.394;2023-09-18T10:04:05;4.57;;;4.27;;
5945;SDS011;2998;48.206;16.394;2023-09-18T10:06:37;5.30;;;4.87;;
5945;SDS011;2998;48.206;16.394;2023-09-18T10:09:09;4.93;;;4.60;;
5945;SDS011;2998;48.206;16.394;2023-09-18T10:11:41;4.57;;;4.20;;
5945;SDS011;2998;48.206;16.394;2023-09-18T10:14:15;4.70;;;4.40;;
5945;SDS011;2998;48.206;16.394;2023-09-18T10:16:49;4.73;;;4.33;;
5945;SDS011;2998;48.206;16.394;2023-09-18T10:19:21;5.43;;;5.03;;
5945;SDS011;2998;48.206;16.394;2023-09-18T10:22:01;7.87;;;4.97;;
5945;SDS011;2998;48.206;16.394;2023-09-18T10:24:39;4.60;;;4.30;;
5945;SDS011;2998;48.206;16.394;2023-09-18T10:28:28;4.53;;;4.23;;
5945;SDS011;2998;48.206;16.394;2023-09-18T10:35:23;10.97;;;4.97;;
5945;SDS011;2998;48.206;16.394;2023-09-18T10:37:53;5.07;;;4.77;;
5945;SDS011;2998;48.206;16.394;2023-09-18T10:44:35;4.60;;;4.30;;
5945;SDS011;2998;48.206;16.394;2023-09-18T10:47:08;4.80;;;4.37;;
5945;SDS011;2998;48.206;16.394;2023-09-18T10:49:39;5.13;;;4.83;;
5945;SDS011;2998;48.206;16.394;2023-09-18T10:52:12;6.03;;;4.20;;
5945;SDS011;2998;48.206;16.394;2023-09-18T10:54:42;5.10;;;4.43;;
5945;SDS011;2998;48.206;16.394;2023-09-18T10:57:11;5.27;;;4.77;;
5945;SDS011;2998;48.206;16.394;2023-09-18T10:59:43;5.97;;;5.53;;
5945;SDS011;2998;48.206;16.394;2023-09-18T11:02:14;4.90;;;4.60;;
5945;SDS011;2998;48.206;16.394;2023-09-18T11:04:45;5.57;;;5.07;;
5945;SDS011;2998;48.206;16.394;2023-09-18T11:07:22;7.83;;;5.37;;
5945;SDS011;2998;48.206;16.394;2023-09-18T11:09:52;10.20;;;4.97;;
5945;SDS011;2998;48.206;16.394;2023-09-18T11:12:21;4.37;;;4.17;;
5945;SDS011;2998;48.206;16.394;2023-09-18T11:15:24;5.00;;;4.60;;
5945;SDS011;2998;48.206;16.394;2023-09-18T11:17:58;5.70;;;4.47;;
5945;SDS011;2998;48.206;16.394;2023-09-18T11:25:03;4.80;;;4.40;;
5945;SDS011;2998;48.206;16.394;2023-09-18T11:28:02;4.97;;;4.40;;
5945;SDS011;2998;48.206;16.394;2023-09-18T11:30:34;6.10;;;5.50;;
5945;SDS011;2998;48.206;16.394;2023-09-18T11:34:59;5.43;;;4.83;;
5945;SDS011;2998;48.206;16.394;2023-09-18T11:42:07;5.20;;;4.90;;
5945;SDS011;2998;48.206;16.394;2023-09-18T11:44:40;5.10;;;4.70;;
5945;SDS011;2998;48.206;16.394;2023-09-18T11:51:34;4.57;;;4.23;;
5945;SDS011;2998;48.206;16.394;2023-09-18T11:54:07;4.50;;;4.20;;
5945;SDS011;2998;48.206;16.394;2023-09-18T12:00:52;4.23;;;4.03;;
5945;SDS011;2998;48.206;16.394;2023-09-18T12:03:23;4.23;;;3.93;;
5945;SDS011;2998;48.206;16.394;2023-09-18T12:05:57;8.57;;;3.73;;
5945;SDS011;2998;48.206;16.394;2023-09-18T12:08:28;4.43;;;4.03;;
5945;SDS011;2998;48.206;16.394;2023-09-18T12:11:00;4.50;;;4.20;;
5945;SDS011;2998;48.206;16.394;2023-09-18T12:13:34;10.40;;;5.23;;
5945;SDS011;2998;48.206;16.394;2023-09-18T12:16:05;3.90;;;3.60;;
5945;SDS011;2998;48.206;16.394;2023-09-18T12:18:37;8.03;;;4.47;;
5945;SDS011;2998;48.206;16.394;2023-09-18T12:21:07;6.50;;;5.90;;
5945;SDS011;2998;48.206;16.394;2023-09-18T12:23:37;4.77;;;4.50;;
5945;SDS011;2998;48.206;16.394;2023-09-18T12:26:10;8.90;;;5.27;;
5945;SDS011;2998;48.206;16.394;2023-09-18T12:28:47;5.30;;;4.80;;
5945;SDS011;2998;48.206;16.394;2023-09-18T12:31:21;4.87;;;4.47;;
5945;SDS011;2998;48.206;16.394;2023-09-18T12:33:51;7.17;;;4.93;;
5945;SDS011;2998;48.206;16.394;2023-09-18T12:36:22;4.33;;;4.13;;
5945;SDS011;2998;48.206;16.394;2023-09-18T12:38:56;7.50;;;6.20;;
5945;SDS011;2998;48.206;16.394;2023-09-18T12:45:45;4.57;;;4.17;;
5945;SDS011;2998;48.206;16.394;2023-09-18T12:52:48;8.63;;;4.20;;
5945;SDS011;2998;48.206;16.394;2023-09-18T12:55:23;5.47;;;5.07;;
5945;SDS011;2998;48.206;16.394;2023-09-18T13:02:06;15.00;;;5.97;;
5945;SDS011;2998;48.206;16.394;2023-09-18T13:08:56;5.30;;;4.80;;
5945;SDS011;2998;48.206;16.394;2023-09-18T13:11:55;8.53;;;4.70;;
5945;SDS011;2998;48.206;16.394;2023-09-18T13:23:15;4.53;;;4.20;;
5945;SDS011;2998;48.206;16.394;2023-09-18T13:25:50;4.53;;;3.97;;
5945;SDS011;2998;48.206;16.394;2023-09-18T13:32:31;4.23;;;3.93;;
5945;SDS011;2998;48.206;16.394;2023-09-18T13:35:04;4.80;;;4.50;;
5945;SDS011;2998;48.206;16.394;2023-09-18T13:41:56;6.23;;;4.30;;
5945;SDS011;2998;48.206;16.394;2023-09-18T13:48:38;7.50;;;4.07;;
5945;SDS011;2998;48.206;16.394;2023-09-18T13:51:08;5.00;;;4.50;;
5945;SDS011;2998;48.206;16.394;2023-09-18T13:57:52;4.40;;;4.10;;
5945;SDS011;2998;48.206;16.394;2023-09-18T14:04:41;4.30;;;4.00;;
5945;SDS011;2998;48.206;16.394;2023-09-18T14:11:29;4.60;;;4.03;;
5945;SDS011;2998;48.206;16.394;2023-09-18T14:18:15;4.70;;;4.30;;
5945;SDS011;2998;48.206;16.394;2023-09-18T14:20:45;6.03;;;4.70;;
5945;SDS011;2998;48.206;16.394;2023-09-18T14:23:14;5.10;;;4.60;;
5945;SDS011;2998;48.206;16.394;2023-09-18T14:25:43;4.10;;;3.80;;
5945;SDS011;2998;48.206;16.394;2023-09-18T14:28:13;5.93;;;4.60;;
5945;SDS011;2998;48.206;16.394;2023-09-18T14:35:04;5.87;;;4.60;;
5945;SDS011;2998;48.206;16.394;2023-09-18T14:37:35;6.03;;;4.27;;
5945;SDS011;2998;48.206;16.394;2023-09-18T14:44:24;7.60;;;4.70;;
5945;SDS011;2998;48.206;16.394;2023-09-18T14:46:55;7.80;;;4.33;;
5945;SDS011;2998;48.206;16.394;2023-09-18T14:49:25;5.17;;;4.57;;
5945;SDS011;2998;48.206;16.394;2023-09-18T14:53:16;6.90;;;4.27;;
5945;SDS011;2998;48.206;16.394;2023-09-18T15:00:06;4.27;;;3.97;;
5945;SDS011;2998;48.206;16.394;2023-09-18T15:02:38;7.40;;;5.47;;
5945;SDS011;2998;48.206;16.394;2023-09-18T15:09:29;9.33;;;6.57;;
5945;SDS011;2998;48.206;16.394;2023-09-18T15:11:59;7.63;;;7.07;;
5945;SDS011;2998;48.206;16.394;2023-09-18T15:14:31;7.30;;;6.60;;
5945;SDS011;2998;48.206;16.394;2023-09-18T15:17:01;6.60;;;6.10;;
5945;SDS011;2998;48.206;16.394;2023-09-18T15:19:31;6.90;;;6.40;;
5945;SDS011;2998;48.206;16.394;2023-09-18T15:22:01;7.20;;;6.50;;
5945;SDS011;2998;48.206;16.394;2023-09-18T15:24:34;7.87;;;7.17;;
5945;SDS011;2998;48.206;16.394;2023-09-18T15:27:05;7.57;;;7.10;;
5945;SDS011;2998;48.206;16.394;2023-09-18T15:29:35;7.50;;;6.80;;
5945;SDS011;2998;48.206;16.394;2023-09-18T15:36:11;6.00;;;5.50;;
5945;SDS011;2998;48.206;16.394;2023-09-18T15:38:41;7.30;;;6.20;;
5945;SDS011;2998;48.206;16.394;2023-09-18T15:45:31;10.03;;;6.93;;
5945;SDS011;2998;48.206;16.394;2023-09-18T15:48:03;8.23;;;5.80;;
5945;SDS011;2998;48.206;16.394;2023-09-18T15:50:34;13.50;;;6.07;;
5945;SDS011;2998;48.206;16.394;2023-09-18T15:54:06;5.90;;;5.40;;
5945;SDS011;2998;48.206;16.394;2023-09-18T16:01:01;9.50;;;5.00;;
5945;SDS011;2998;48.206;16.394;2023-09-18T16:03:40;17.03;;;5.37;;
5945;SDS011;2998;48.206;16.394;2023-09-18T16:10:39;13.07;;;5.33;;
5945;SDS011;2998;48.206;16.394;2023-09-18T16:13:12;6.30;;;5.47;;
5945;SDS011;2998;48.206;16.394;2023-09-18T16:15:44;8.13;;;5.17;;
5945;SDS011;2998;48.206;16.394;2023-09-18T16:18:15;7.83;;;4.50;;
5945;SDS011;2998;48.206;16.394;2023-09-18T16:20:48;9.57;;;5.30;;
5945;SDS011;2998;48.206;16.394;2023-09-18T16:23:18;5.57;;;5.10;;
5945;SDS011;2998;48.206;16.394;2023-09-18T16:25:49;6.57;;;5.90;;
5945;SDS011;2998;48.206;16.394;2023-09-18T16:32:31;6.20;;;5.60;;
5945;SDS011;2998;48.206;16.394;2023-09-18T16:35:04;5.60;;;5.00;;
5945;SDS011;2998;48.206;16.394;2023-09-18T16:41:48;5.90;;;5.17;;
5945;SDS011;2998;48.206;16.394;2023-09-18T16:44:20;5.80;;;5.00;;
5945;SDS011;2998;48.206;16.394;2023-09-18T16:46:53;9.33;;;5.67;;
5945;SDS011;2998;48.206;16.394;2023-09-18T16:49:26;22.37;;;5.90;;
5945;SDS011;2998;48.206;16.394;2023-09-18T16:52:00;8.10;;;5.97;;
5945;SDS011;2998;48.206;16.394;2023-09-18T16:54:34;7.87;;;6.00;;
5945;SDS011;2998;48.206;16.394;2023-09-18T16:57:06;11.03;;;5.90;;
5945;SDS011;2998;48.206;16.394;2023-09-18T16:59:37;6.20;;;5.30;;
5945;SDS011;2998;48.206;16.394;2023-09-18T17:02:07;8.23;;;6.27;;
5945;SDS011;2998;48.206;16.394;2023-09-18T17:04:38;11.30;;;7.17;;
5945;SDS011;2998;48.206;16.394;2023-09-18T17:07:19;6.70;;;5.70;;
5945;SDS011;2998;48.206;16.394;2023-09-18T17:09:51;11.70;;;6.30;;
5945;SDS011;2998;48.206;16.394;2023-09-18T17:12:25;7.03;;;5.80;;
5945;SDS011;2998;48.206;16.394;2023-09-18T17:14:59;8.63;;;5.80;;
5945;SDS011;2998;48.206;16.394;2023-09-18T17:17:30;12.43;;;6.90;;
5945;SDS011;2998;48.206;16.394;2023-09-18T17:20:01;7.33;;;5.77;;
5945;SDS011;2998;48.206;16.394;2023-09-18T17:22:39;6.77;;;6.27;;
5945;SDS011;2998;48.206;16.394;2023-09-18T17:25:09;8.53;;;5.80;;
5945;SDS011;2998;48.206;16.394;2023-09-18T17:27:39;7.10;;;5.90;;
5945;SDS011;2998;48.206;16.394;2023-09-18T17:30:08;6.17;;;5.67;;
5945;SDS011;2998;48.206;16.394;2023-09-18T17:32:41;7.43;;;6.43;;
5945;SDS011;2998;48.206;16.394;2023-09-18T17:35:10;6.33;;;5.80;;
5945;SDS011;2998;48.206;16.394;2023-09-18T17:37:41;10.10;;;6.37;;
5945;SDS011;2998;48.206;16.394;2023-09-18T17:44:29;10.63;;;4.83;;
5945;SDS011;2998;48.206;16.394;2023-09-18T17:47:00;14.33;;;4.60;;
5945;SDS011;2998;48.206;16.394;2023-09-18T17:53:49;13.40;;;4.60;;
5945;SDS011;2998;48.206;16.394;2023-09-18T17:56:19;8.83;;;4.33;;
5945;SDS011;2998;48.206;16.394;2023-09-18T18:03:06;8.63;;;4.40;;
5945;SDS011;2998;48.206;16.394;2023-09-18T18:05:39;6.80;;;3.70;;
5945;SDS011;2998;48.206;16.394;2023-09-18T18:08:11;9.10;;;3.90;;
5945;SDS011;2998;48.206;16.394;2023-09-18T18:14:59;8.57;;;3.63;;
5945;SDS011;2998;48.206;16.394;2023-09-18T18:17:29;10.13;;;3.37;;
5945;SDS011;2998;48.206;16.394;2023-09-18T18:24:16;12.73;;;3.37;;
5945;SDS011;2998;48.206;16.394;2023-09-18T18:26:45;7.10;;;2.87;;
5945;SDS011;2998;48.206;16.394;2023-09-18T18:29:16;7.93;;;2.63;;
5945;SDS011;2998;48.206;16.394;2023-09-18T18:31:46;7.80;;;2.70;;
5945;SDS011;2998;48.206;16.394;2023-09-18T18:34:16;9.87;;;3.07;;
5945;SDS011;2998;48.206;16.394;2023-09-18T18:36:46;10.50;;;2.93;;
5945;SDS011;2998;48.206;16.394;2023-09-18T18:39:15;13.80;;;2.90;;
5945;SDS011;2998;48.206;16.394;2023-09-18T18:41:44;3.13;;;2.53;;
5945;SDS011;2998;48.206;16.394;2023-09-18T18:44:13;4.60;;;2.80;;
5945;SDS011;2998;48.206;16.394;2023-09-18T18:46:42;4.70;;;2.23;;
5945;SDS011;2998;48.206;16.394;2023-09-18T18:49:12;6.30;;;2.30;;
5945;SDS011;2998;48.206;16.394;2023-09-18T18:51:42;6.37;;;2.80;;
5945;SDS011;2998;48.206;16.394;2023-09-18T18:54:11;10.87;;;3.20;;
5945;SDS011;2998;48.206;16.394;2023-09-18T18:56:41;9.03;;;3.00;;
5945;SDS011;2998;48.206;16.394;2023-09-18T18:59:11;3.53;;;2.53;;
5945;SDS011;2998;48.206;16.394;2023-09-18T19:05:54;5.23;;;2.30;;
5945;SDS011;2998;48.206;16.394;2023-09-18T19:08:26;10.73;;;2.60;;
5945;SDS011;2998;48.206;16.394;2023-09-18T19:15:14;3.37;;;2.27;;
5945;SDS011;2998;48.206;16.394;2023-09-18T19:17:47;4.17;;;2.13;;
5945;SDS011;2998;48.206;16.394;2023-09-18T19:20:17;3.10;;;2.77;;
5945;SDS011;2998;48.206;16.394;2023-09-18T19:22:48;9.20;;;2.60;;
5945;SDS011;2998;48.206;16.394;2023-09-18T19:25:20;4.50;;;2.70;;
5945;SDS011;2998;48.206;16.394;2023-09-18T19:27:49;4.77;;;2.10;;
5945;SDS011;2998;48.206;16.394;2023-09-18T19:30:19;3.17;;;2.63;;
5945;SDS011;2998;48.206;16.394;2023-09-18T19:32:48;2.87;;;2.20;;
5945;SDS011;2998;48.206;16.394;2023-09-18T19:35:18;5.13;;;2.53;;
5945;SDS011;2998;48.206;16.394;2023-09-18T19:37:49;8.67;;;2.80;;
5945;SDS011;2998;48.206;16.394;2023-09-18T19:40:18;3.30;;;1.80;;
5945;SDS011;2998;48.206;16.394;2023-09-18T19:47:00;9.00;;;2.87;;
5945;SDS011;2998;48.206;16.394;2023-09-18T19:49:31;3.27;;;2.47;;
5945;SDS011;2998;48.206;16.394;2023-09-18T19:56:14;3.17;;;2.20;;
5945;SDS011;2998;48.206;16.394;2023-09-18T19:58:43;3.00;;;2.70;;
5945;SDS011;2998;48.206;16.394;2023-09-18T20:01:12;3.53;;;2.70;;
5945;SDS011;2998;48.206;16.394;2023-09-18T20:03:42;7.60;;;3.60;;
5945;SDS011;2998;48.206;16.394;2023-09-18T20:06:12;4.53;;;3.20;;
5945;SDS011;2998;48.206;16.394;2023-09-18T20:08:43;8.50;;;3.00;;
5945;SDS011;2998;48.206;16.394;2023-09-18T20:11:14;2.50;;;2.40;;
5945;SDS011;2998;48.206;16.394;2023-09-18T20:22:22;3.70;;;3.40;;
5945;SDS011;2998;48.206;16.394;2023-09-18T20:24:51;3.77;;;3.10;;
5945;SDS011;2998;48.206;16.394;2023-09-18T20:31:40;6.60;;;3.30;;
5945;SDS011;2998;48.206;16.394;2023-09-18T20:38:22;4.57;;;3.60;;
5945;SDS011;2998;48.206;16.394;2023-09-18T20:40:52;5.30;;;3.33;;
5945;SDS011;2998;48.206;16.394;2023-09-18T20:47:42;3.83;;;2.90;;
5945;SDS011;2998;48.206;16.394;2023-09-18T20:50:12;6.33;;;3.33;;
5945;SDS011;2998;48.206;16.394;2023-09-18T20:52:41;8.33;;;3.00;;
5945;SDS011;2998;48.206;16.394;2023-09-18T20:55:11;3.50;;;2.80;;
5945;SDS011;2998;48.206;16.394;2023-09-18T20:57:40;3.30;;;3.00;;
5945;SDS011;2998;48.206;16.394;2023-09-18T21:00:10;4.70;;;3.80;;
5945;SDS011;2998;48.206;16.394;2023-09-18T21:02:42;4.97;;;4.43;;
5945;SDS011;2998;48.206;16.394;2023-09-18T21:05:13;8.60;;;4.40;;
5945;SDS011;2998;48.206;16.394;2023-09-18T21:07:43;4.23;;;3.93;;
5945;SDS011;2998;48.206;16.394;2023-09-18T21:10:13;4.40;;;4.00;;
5945;SDS011;2998;48.206;16.394;2023-09-18T21:12:42;13.67;;;4.60;;
5945;SDS011;2998;48.206;16.394;2023-09-18T21:15:11;6.50;;;3.70;;
5945;SDS011;2998;48.206;16.394;2023-09-18T21:17:42;5.20;;;4.80;;
5945;SDS011;2998;48.206;16.394;2023-09-18T21:24:37;8.33;;;4.87;;
5945;SDS011;2998;48.206;16.394;2023-09-18T21:27:06;4.27;;;4.07;;
5945;SDS011;2998;48.206;16.394;2023-09-18T21:33:55;4.87;;;4.57;;
5945;SDS011;2998;48.206;16.394;2023-09-18T21:36:24;6.57;;;5.37;;
5945;SDS011;2998;48.206;16.394;2023-09-18T21:43:06;7.07;;;6.50;;
5945;SDS011;2998;48.206;16.394;2023-09-18T21:49:55;7.60;;;5.60;;
5945;SDS011;2998;48.206;16.394;2023-09-18T21:52:24;6.47;;;6.17;;
5945;SDS011;2998;48.206;16.394;2023-09-18T21:59:13;5.80;;;3.70;;
5945;SDS011;2998;48.206;16.394;2023-09-18T22:01:42;5.10;;;4.80;;
5945;SDS011;2998;48.206;16.394;2023-09-18T22:04:12;4.00;;;3.70;;